ADDS METAR Data INFO
IDs: Format: Raw Decoded Include TAF

Data at: 2341 UTC 15 Dec 2017

KCNI 152335Z AUTO 31006KT 10SM CLR 01/M03 A3015 RMK AO2
KCNI 152315Z AUTO 30006KT 10SM CLR 01/M03 A3015 RMK AO2
KCNI 152255Z AUTO 31007KT 10SM CLR 01/M03 A3014 RMK AO2
KCNI 152235Z AUTO 30004KT 10SM CLR 01/M03 A3013 RMK AO2
KCNI 152215Z AUTO 29007KT 10SM CLR 02/M03 A3012 RMK AO2
KCNI 152155Z AUTO 30011G15KT 10SM CLR 02/M03 A3011 RMK AO2
KCNI 152135Z AUTO 30008G15KT 10SM CLR 02/M03 A3011 RMK AO2
KCNI 152115Z AUTO 30010G18KT 270V330 10SM CLR 02/M03 A3010 RMK AO2
KCNI 152055Z AUTO 29012G16KT 10SM CLR 02/M03 A3009 RMK AO2
KCNI 152035Z AUTO 29011G17KT 10SM CLR 02/M03 A3009 RMK AO2
KCNI 152015Z AUTO 30008KT 10SM CLR 02/M03 A3008 RMK AO2
KCNI 151955Z AUTO 30009G14KT 10SM CLR 02/M03 A3008 RMK AO2
KCNI 151935Z AUTO 30013G20KT 10SM CLR 02/M03 A3008 RMK AO2
KCNI 151915Z AUTO 28011G17KT 10SM CLR 02/M03 A3008 RMK AO2
KCNI 151855Z AUTO 31009G17KT 290V350 10SM CLR 02/M03 A3008 RMK AO2
KCNI 151835Z AUTO 29014G19KT 10SM CLR 02/M03 A3008 RMK AO2
KCNI 151815Z AUTO 31009G20KT 270V330 10SM CLR 02/M03 A3007 RMK AO2
KCNI 151755Z AUTO 30018G24KT 10SM CLR 02/M03 A3009 RMK AO2
KCNI 151735Z AUTO 30010G18KT 10SM SCT024 02/M03 A3009 RMK AO2
KCNI 151715Z AUTO 31007G17KT 290V360 10SM BKN022 02/M02 A3009 RMK AO2
KCNI 151655Z AUTO 31009G16KT 10SM OVC022 02/M02 A3010 RMK AO2
KCNI 151635Z AUTO 30005KT 10SM OVC022 02/M02 A3009 RMK AO2
KCNI 151615Z AUTO 30007KT 10SM OVC022 02/M02 A3008 RMK AO2
KCNI 151555Z AUTO 29010G15KT 10SM OVC020 02/M02 A3008 RMK AO2
KCNI 151535Z AUTO 29009G15KT 10SM BKN020 02/M02 A3007 RMK AO2
KCNI 151515Z AUTO 31009G16KT 290V360 10SM SCT018 02/M02 A3007 RMK AO2
KCNI 151455Z AUTO 28009G16KT 10SM CLR 02/M01 A3007 RMK AO2
KCNI 151435Z AUTO 29008KT 10SM CLR 01/M01 A3006 RMK AO2
KCNI 151415Z AUTO 31009G14KT 10SM CLR 01/M01 A3006 RMK AO2
KCNI 151355Z AUTO 29010KT 10SM CLR 01/M01 A3005 RMK AO2
KCNI 151335Z AUTO 27006KT 10SM CLR 01/M01 A3003 RMK AO2
KCNI 151315Z AUTO 30010KT 10SM CLR 01/M01 A3003 RMK AO2
KCNI 151255Z AUTO 30007KT 10SM CLR 01/M01 A3001 RMK AO2
KCNI 151235Z AUTO 30009KT 10SM CLR 00/M01 A3003 RMK AO2
KCNI 151215Z AUTO 29010KT 10SM CLR 01/M01 A3002 RMK AO2
KCNI 151155Z AUTO 29009KT 10SM CLR 01/M01 A3001 RMK AO2
KCNI 151135Z AUTO 29009KT 10SM CLR 01/M01 A3000 RMK AO2
KCNI 151115Z AUTO 29009KT 10SM CLR 01/00 A3000 RMK AO2
KCNI 151055Z AUTO 29008KT 10SM CLR 01/00 A2999 RMK AO2
KCNI 151035Z AUTO 30007KT 10SM CLR 02/00 A3000 RMK AO2
KCNI 151015Z AUTO 29008KT 10SM CLR 02/00 A3000 RMK AO2
KCNI 150955Z AUTO 29006KT 10SM CLR 02/00 A2999 RMK AO2
KCNI 150935Z AUTO 29005KT 10SM CLR 02/00 A2999 RMK AO2
KCNI 150915Z AUTO 29009KT 10SM CLR 03/00 A2999 RMK AO2
KCNI 150855Z AUTO 28006KT 10SM CLR 03/00 A3000 RMK AO2
KCNI 150835Z AUTO 30006KT 10SM CLR 03/00 A2998 RMK AO2
KCNI 150815Z AUTO 28005KT 10SM CLR 03/00 A2999 RMK AO2
KCNI 150755Z AUTO 28005KT 10SM CLR 04/00 A2998 RMK AO2
KCNI 150735Z AUTO 29005KT 10SM CLR 04/00 A2998 RMK AO2
KCNI 150715Z AUTO 30006KT 10SM SCT120 04/00 A2999 RMK AO2
KCNI 150655Z AUTO 30007KT 10SM SCT120 05/00 A2999 RMK AO2
KCNI 150635Z AUTO 29007KT 10SM CLR 06/00 A2999 RMK AO2
KCNI 150615Z AUTO 29004KT 10SM CLR 06/00 A2999 RMK AO2
KCNI 150555Z AUTO 28003KT 10SM CLR 06/00 A2999 RMK AO2
KCNI 150535Z AUTO 27005KT 10SM CLR 07/00 A3000 RMK AO2
KCNI 150515Z AUTO 26004KT 10SM CLR 07/00 A2999 RMK AO2
KCNI 150455Z AUTO 28003KT 10SM CLR 07/00 A2999 RMK AO2
KCNI 150435Z AUTO 28004KT 10SM CLR 07/00 A3000 RMK AO2
KCNI 150415Z AUTO 29004KT 10SM CLR 07/00 A3000 RMK AO2
KCNI 150355Z AUTO 29005KT 10SM CLR 07/00 A3000 RMK AO2
KCNI 150335Z AUTO 00000KT 10SM CLR 07/00 A2999 RMK AO2
KCNI 150315Z AUTO 32003KT 10SM CLR 06/01 A2999 RMK AO2
KCNI 150255Z AUTO 32004KT 10SM CLR 05/01 A2999 RMK AO2
KCNI 150235Z AUTO 00000KT 10SM CLR 05/01 A2998 RMK AO2
KCNI 150215Z AUTO 00000KT 10SM CLR 06/01 A2998 RMK AO2
KCNI 150155Z AUTO 00000KT 10SM CLR 05/01 A2998 RMK AO2
KCNI 150135Z AUTO 27003KT 10SM CLR 07/00 A2998 RMK AO2
KCNI 150115Z AUTO 00000KT 10SM CLR 07/00 A2997 RMK AO2
KCNI 150055Z AUTO 00000KT 10SM CLR 07/01 A2997 RMK AO2
KCNI 150035Z AUTO 00000KT 10SM CLR 08/00 A2996 RMK AO2
KCNI 150015Z AUTO 00000KT 10SM CLR 09/01 A2995 RMK AO2
KCNI 142355Z AUTO 00000KT 10SM CLR 08/01 A2996 RMK AO2
KCNI 142335Z AUTO 00000KT 10SM CLR 09/01 A2994 RMK AO2
KCNI 142315Z AUTO 00000KT 10SM CLR 10/01 A2994 RMK AO2
KCNI 142255Z AUTO 00000KT 10SM CLR 10/01 A2994 RMK AO2
KCNI 142235Z AUTO 00000KT 10SM CLR 11/00 A2994 RMK AO2
KCNI 142215Z AUTO 00000KT 10SM CLR 12/00 A2993 RMK AO2
KCNI 142155Z AUTO 00000KT 10SM CLR 12/00 A2993 RMK AO2
KCNI 142135Z AUTO 30006KT 10SM CLR 12/00 A2993 RMK AO2
KCNI 142115Z AUTO 29004KT 10SM CLR 13/00 A2994 RMK AO2
KCNI 142055Z AUTO 29005KT 10SM CLR 13/00 A2993 RMK AO2
KCNI 142035Z AUTO 30009KT 10SM CLR 13/00 A2992 RMK AO2
KCNI 142015Z AUTO 29005KT 10SM CLR 13/00 A2992 RMK AO2
KCNI 141955Z AUTO 28005KT 10SM CLR 13/00 A2992 RMK AO2
KCNI 141935Z AUTO 29008KT 250V310 10SM CLR 13/00 A2992 RMK AO2
KCNI 141915Z AUTO 28007KT 10SM CLR 12/00 A2992 RMK AO2
KCNI 141855Z AUTO 31006KT 10SM CLR 12/00 A2992 RMK AO2
KCNI 141835Z AUTO 28008KT 10SM CLR 12/00 A2992 RMK AO2
KCNI 141815Z AUTO 30006KT 10SM CLR 12/00 A2992 RMK AO2
KCNI 141755Z AUTO 29007KT 10SM CLR 11/00 A2992 RMK AO2
KCNI 141735Z AUTO 25003KT 10SM CLR 11/00 A2992 RMK AO2
KCNI 141715Z AUTO 31005KT 10SM CLR 10/00 A2992 RMK AO2
KCNI 141655Z AUTO 29006KT 10SM CLR 10/00 A2993 RMK AO2
KCNI 141635Z AUTO 30006KT 10SM CLR 10/00 A2993 RMK AO2
KCNI 141615Z AUTO 30005KT 10SM CLR 09/00 A2993 RMK AO2
KCNI 141555Z AUTO 27006KT 10SM CLR 08/00 A2993 RMK AO2
KCNI 141535Z AUTO 28006KT 10SM CLR 08/00 A2993 RMK AO2
KCNI 141515Z AUTO 31004KT 10SM CLR 07/00 A2991 RMK AO2
KCNI 141455Z AUTO 29008KT 10SM CLR 07/00 A2991 RMK AO2
KCNI 141435Z AUTO 29005KT 10SM CLR 06/00 A2990 RMK AO2
KCNI 141415Z AUTO 28005KT 10SM CLR 05/M01 A2990 RMK AO2
KCNI 141355Z AUTO 28006KT 10SM CLR 05/M01 A2990 RMK AO2
KCNI 141335Z AUTO 28004KT 10SM CLR 04/M01 A2990 RMK AO2
KCNI 141315Z AUTO 27004KT 10SM CLR 03/M01 A2990 RMK AO2
KCNI 141255Z AUTO 28004KT 10SM CLR 03/M01 A2989 RMK AO2
KCNI 141235Z AUTO 27006KT 10SM CLR 03/M01 A2988 RMK AO2
KCNI 141215Z AUTO 26005KT 10SM CLR 04/M01 A2988 RMK AO2
KCNI 141155Z AUTO 27005KT 10SM CLR 04/M01 A2987 RMK AO2